createdAt,value
2023-06-04T00:02:13.834Z,48.65
2023-06-04T00:04:41.454Z,48.50
2023-06-04T00:07:08.905Z,47.90
2023-06-04T00:09:36.560Z,47.39
2023-06-04T00:12:04.120Z,47.23
2023-06-04T00:14:31.899Z,47.80
2023-06-04T00:16:59.170Z,48.90
2023-06-04T00:19:26.737Z,49.62
2023-06-04T00:21:54.107Z,49.12
2023-06-04T00:24:21.665Z,48.65
2023-06-04T00:26:48.937Z,49.68
2023-06-04T00:29:16.610Z,47.86
2023-06-04T00:31:43.955Z,48.16
2023-06-04T00:34:12.656Z,49.81
2023-06-04T00:36:41.712Z,47.88
2023-06-04T00:39:10.381Z,48.38
2023-06-04T00:41:37.874Z,46.96
2023-06-04T00:44:07.782Z,46.65
2023-06-04T00:46:37.133Z,47.28
2023-06-04T00:49:07.176Z,46.74
2023-06-04T00:51:34.798Z,47.28
2023-06-04T00:54:09.818Z,47.55
2023-06-04T00:56:38.493Z,47.47
2023-06-04T00:59:08.180Z,48.18
2023-06-04T01:01:48.288Z,47.91
2023-06-04T01:04:27.187Z,47.26
2023-06-04T01:06:58.914Z,48.04
2023-06-04T01:09:30.014Z,47.67
2023-06-04T01:12:00.346Z,47.88
2023-06-04T01:14:28.035Z,49.07
2023-06-04T01:17:18.353Z,48.87
2023-06-04T01:20:05.640Z,49.30
2023-06-04T01:22:43.150Z,49.60
2023-06-04T01:25:20.760Z,49.63
2023-06-04T01:27:51.387Z,49.63
2023-06-04T01:30:25.480Z,49.70
2023-06-04T01:32:55.311Z,50.45
2023-06-04T01:35:26.008Z,50.05
2023-06-04T01:37:55.636Z,50.31
2023-06-04T01:40:24.458Z,50.25
2023-06-04T01:42:51.909Z,49.66
2023-06-04T01:45:19.592Z,49.92
2023-06-04T01:47:46.939Z,49.80
2023-06-04T01:50:14.679Z,50.83
2023-06-04T01:52:42.538Z,50.17
2023-06-04T01:55:13.359Z,49.63
2023-06-04T01:57:41.747Z,50.26
2023-06-04T02:00:11.575Z,50.40
2023-06-04T02:02:44.627Z,51.00
2023-06-04T02:05:13.221Z,51.38
2023-06-04T02:07:46.025Z,51.24
2023-06-04T02:10:16.151Z,51.46
2023-06-04T02:12:57.303Z,52.00
2023-06-04T02:15:26.421Z,52.02
2023-06-04T02:17:56.626Z,52.03
2023-06-04T02:20:24.294Z,51.63
2023-06-04T02:22:51.585Z,52.58
2023-06-04T02:25:19.636Z,51.81
2023-06-04T02:27:47.155Z,51.72
2023-06-04T02:30:14.977Z,51.68
2023-06-04T02:32:42.381Z,51.50
2023-06-04T02:35:10.385Z,50.89
2023-06-04T02:37:38.315Z,50.77
2023-06-04T02:40:06.598Z,50.47
2023-06-04T02:42:34.105Z,50.44
2023-06-04T02:45:01.764Z,50.68
2023-06-04T02:47:29.472Z,50.90
2023-06-04T02:49:57.114Z,51.28
2023-06-04T02:52:26.412Z,50.97
2023-06-04T02:54:54.135Z,51.37
2023-06-04T02:57:21.362Z,51.29
2023-06-04T02:59:48.972Z,51.06
2023-06-04T03:02:16.358Z,51.11
2023-06-04T03:04:45.400Z,50.66
2023-06-04T03:07:12.718Z,51.22
2023-06-04T03:09:40.264Z,51.16
2023-06-04T03:12:07.807Z,51.59
2023-06-04T03:14:35.348Z,50.49
2023-06-04T03:17:08.685Z,49.28
2023-06-04T03:19:37.547Z,48.99
2023-06-04T03:22:09.146Z,48.24
2023-06-04T03:24:39.995Z,44.79
2023-06-04T03:27:09.141Z,41.15
2023-06-04T03:29:36.850Z,38.74
2023-06-04T03:32:06.016Z,36.15
2023-06-04T03:34:35.776Z,34.24
2023-06-04T03:37:04.067Z,32.28
2023-06-04T03:39:33.301Z,32.53
2023-06-04T03:42:02.642Z,30.42
2023-06-04T03:44:30.918Z,29.15
2023-06-04T03:46:58.893Z,28.19
2023-06-04T03:49:27.195Z,26.92
2023-06-04T03:51:55.209Z,28.77
2023-06-04T03:54:23.571Z,28.98
2023-06-04T03:56:52.157Z,31.58
2023-06-04T03:59:19.813Z,35.97
2023-06-04T04:01:47.921Z,36.85
2023-06-04T04:04:16.296Z,37.54
2023-06-04T04:06:43.609Z,39.76
2023-06-04T04:09:12.765Z,40.29
2023-06-04T04:11:40.231Z,38.43
2023-06-04T04:14:08.251Z,39.01
2023-06-04T04:16:35.974Z,39.02
2023-06-04T04:19:04.095Z,38.42
2023-06-04T04:21:31.410Z,35.18
2023-06-04T04:23:59.066Z,31.24
2023-06-04T04:26:28.994Z,30.88
2023-06-04T04:29:01.193Z,31.46
2023-06-04T04:31:31.893Z,32.45
2023-06-04T04:34:01.678Z,33.97
2023-06-04T04:36:29.200Z,34.58
2023-06-04T04:38:59.543Z,36.69
2023-06-04T04:41:33.455Z,36.91
2023-06-04T04:44:06.342Z,37.65
2023-06-04T04:46:34.377Z,38.22
2023-06-04T04:49:02.048Z,37.66
2023-06-04T04:51:29.847Z,38.06
2023-06-04T04:54:01.602Z,40.03
2023-06-04T04:56:30.957Z,40.27
2023-06-04T04:58:58.588Z,38.39
2023-06-04T05:01:26.878Z,37.98
2023-06-04T05:03:55.418Z,37.78
2023-06-04T05:06:23.580Z,37.17
2023-06-04T05:08:51.801Z,36.87
2023-06-04T05:11:19.737Z,36.06
2023-06-04T05:13:48.822Z,35.56
2023-06-04T05:16:16.290Z,33.73
2023-06-04T05:18:46.090Z,32.20
2023-06-04T05:21:19.153Z,29.50
2023-06-04T05:23:56.598Z,28.78
2023-06-04T05:26:28.794Z,26.96
2023-06-04T05:28:59.747Z,24.62
2023-06-04T05:31:30.116Z,21.08
2023-06-04T05:34:05.568Z,18.07
2023-06-04T05:36:35.600Z,18.63
2023-06-04T05:39:05.882Z,16.81
2023-06-04T05:41:45.902Z,14.88
2023-06-04T05:44:14.239Z,15.57
2023-06-04T05:46:41.761Z,15.25
2023-06-04T05:49:10.450Z,14.72
2023-06-04T05:51:37.965Z,13.59
2023-06-04T05:54:06.001Z,13.06
2023-06-04T05:56:36.856Z,12.70
2023-06-04T05:59:04.726Z,13.05
2023-06-04T06:01:31.995Z,13.12
2023-06-04T06:03:59.743Z,12.00
2023-06-04T06:06:29.784Z,11.76
2023-06-04T06:08:57.643Z,12.91
2023-06-04T06:11:24.960Z,11.91
2023-06-04T06:13:53.573Z,12.29
2023-06-04T06:16:21.088Z,11.07
2023-06-04T06:18:48.854Z,100.00
2023-06-04T06:21:16.502Z,100.00
2023-06-04T06:23:44.375Z,100.00
2023-06-04T06:26:12.893Z,100.00
2023-06-04T06:28:46.465Z,100.00
2023-06-04T06:31:14.662Z,100.00
2023-06-04T06:33:42.487Z,100.00
2023-06-04T06:36:13.338Z,100.00
2023-06-04T06:38:41.420Z,100.00
2023-06-04T06:41:09.330Z,100.00
2023-06-04T06:43:37.346Z,100.00
2023-06-04T06:46:04.676Z,100.00
2023-06-04T06:48:32.569Z,100.00
2023-06-04T06:50:59.884Z,100.00
2023-06-04T06:53:27.417Z,100.00
2023-06-04T06:55:54.759Z,100.00
2023-06-04T06:58:23.224Z,100.00
2023-06-04T07:00:50.913Z,100.00
2023-06-04T07:03:18.573Z,100.00
2023-06-04T07:05:45.957Z,100.00
2023-06-04T07:08:13.540Z,100.00
2023-06-04T07:10:41.308Z,100.00
2023-06-04T07:13:09.031Z,100.00
2023-06-04T07:15:36.577Z,100.00
2023-06-04T07:18:04.279Z,100.00
2023-06-04T07:20:31.999Z,100.00
2023-06-04T07:22:59.648Z,100.00
2023-06-04T07:25:26.994Z,100.00
2023-06-04T07:27:59.288Z,100.00
2023-06-04T07:30:27.179Z,100.00
2023-06-04T07:32:54.965Z,100.00
2023-06-04T07:35:22.286Z,100.00
2023-06-04T07:37:51.074Z,100.00
2023-06-04T07:40:19.241Z,100.00
2023-06-04T07:42:50.681Z,100.00
2023-06-04T07:45:18.116Z,100.00
2023-06-04T07:47:45.884Z,12.26
2023-06-04T07:50:13.604Z,13.04
2023-06-04T07:52:41.390Z,13.79
2023-06-04T07:55:09.728Z,14.10
2023-06-04T07:57:37.492Z,14.05
2023-06-04T08:00:06.669Z,14.44
2023-06-04T08:02:40.237Z,16.24
2023-06-04T08:05:08.041Z,15.60
2023-06-04T08:07:35.773Z,17.87
2023-06-04T08:10:03.320Z,17.23
2023-06-04T08:12:30.989Z,16.15
2023-06-04T08:14:58.998Z,14.78
2023-06-04T08:17:26.712Z,17.26
2023-06-04T08:19:57.344Z,18.16
2023-06-04T08:22:38.032Z,20.24
2023-06-04T08:25:06.572Z,18.13
2023-06-04T08:27:54.305Z,16.52
2023-06-04T08:30:42.152Z,15.90
2023-06-04T08:33:29.721Z,18.31
2023-06-04T08:35:58.971Z,17.42
2023-06-04T08:38:26.719Z,16.24
2023-06-04T08:40:55.401Z,19.32
2023-06-04T08:43:23.492Z,17.21
2023-06-04T08:45:54.209Z,17.62
2023-06-04T08:48:23.249Z,17.75
2023-06-04T08:50:52.253Z,16.47
2023-06-04T08:53:20.129Z,16.60
2023-06-04T08:55:51.113Z,17.23
2023-06-04T08:58:20.511Z,16.38
2023-06-04T09:00:47.970Z,15.18
2023-06-04T09:03:18.362Z,17.00
2023-06-04T09:05:49.118Z,17.64
2023-06-04T09:08:19.070Z,17.57
2023-06-04T09:10:52.866Z,17.07
2023-06-04T09:13:23.895Z,19.82
2023-06-04T09:16:02.236Z,22.00
2023-06-04T09:18:30.743Z,22.37
2023-06-04T09:21:09.875Z,22.92
2023-06-04T09:23:48.519Z,22.10
2023-06-04T09:26:16.569Z,24.25
2023-06-04T09:28:45.982Z,22.87
2023-06-04T09:31:17.484Z,19.07
2023-06-04T09:33:51.014Z,18.82
2023-06-04T09:36:18.601Z,19.15
2023-06-04T09:38:47.130Z,18.71
2023-06-04T09:41:18.051Z,18.20
2023-06-04T09:43:45.789Z,17.95
2023-06-04T09:46:15.108Z,19.65
2023-06-04T09:48:44.137Z,20.26
2023-06-04T09:51:21.135Z,19.73
2023-06-04T09:53:59.200Z,22.08
2023-06-04T09:56:30.880Z,22.38
2023-06-04T09:59:03.198Z,21.83
2023-06-04T10:01:31.661Z,21.47
2023-06-04T10:04:04.768Z,21.46
2023-06-04T10:06:35.477Z,20.53
2023-06-04T10:09:08.861Z,21.06
2023-06-04T10:11:42.470Z,19.77
2023-06-04T10:14:23.794Z,22.02
2023-06-04T10:16:52.396Z,20.29
2023-06-04T10:19:20.959Z,20.42
2023-06-04T10:21:49.422Z,21.21
2023-06-04T10:24:17.462Z,20.84
2023-06-04T10:26:45.251Z,20.38
2023-06-04T10:29:15.611Z,20.98
2023-06-04T10:31:44.283Z,23.62
2023-06-04T10:34:13.281Z,26.26
2023-06-04T10:36:45.715Z,26.22
2023-06-04T10:39:14.317Z,26.31
2023-06-04T10:41:41.913Z,25.00
2023-06-04T10:44:10.055Z,25.01
2023-06-04T10:46:44.528Z,25.67
2023-06-04T10:49:13.291Z,26.31
2023-06-04T10:51:42.011Z,25.83
2023-06-04T10:54:09.760Z,26.45
2023-06-04T10:56:37.904Z,26.82
2023-06-04T10:59:17.171Z,26.36
2023-06-04T11:01:45.455Z,27.06
2023-06-04T11:04:24.036Z,27.69
2023-06-04T11:07:11.442Z,29.39
2023-06-04T11:09:48.963Z,29.81
2023-06-04T11:12:16.426Z,30.21
2023-06-04T11:15:00.864Z,31.03
2023-06-04T11:17:28.409Z,31.73
2023-06-04T11:19:57.011Z,33.19
2023-06-04T11:22:24.977Z,32.23
2023-06-04T11:25:01.106Z,31.86
2023-06-04T11:30:04.228Z,31.44
2023-06-04T11:32:31.796Z,32.57
2023-06-04T11:35:07.743Z,31.09
2023-06-04T11:37:36.455Z,32.62
2023-06-04T11:40:08.078Z,32.68
2023-06-04T11:42:37.312Z,33.19
2023-06-04T11:45:05.490Z,32.07
2023-06-04T11:47:32.786Z,32.39
2023-06-04T11:50:00.842Z,32.40
2023-06-04T11:52:29.041Z,34.14
2023-06-04T11:54:56.873Z,33.07
2023-06-04T11:57:24.386Z,33.14
2023-06-04T11:59:52.330Z,32.02
2023-06-04T12:02:22.542Z,31.92
2023-06-04T12:04:51.752Z,31.92
2023-06-04T12:07:25.443Z,30.84
2023-06-04T12:09:53.338Z,31.11
2023-06-04T12:12:26.464Z,32.51
2023-06-04T12:14:59.225Z,33.18
2023-06-04T12:17:26.694Z,33.23
2023-06-04T12:19:54.335Z,32.77
2023-06-04T12:22:22.056Z,33.29
2023-06-04T12:24:57.330Z,32.09
2023-06-04T12:27:28.977Z,32.47
2023-06-04T12:30:02.274Z,33.28
2023-06-04T12:32:31.597Z,32.91
2023-06-04T12:34:59.304Z,33.23
2023-06-04T12:37:27.045Z,32.35
2023-06-04T12:39:55.904Z,31.34
2023-06-04T12:42:24.723Z,33.32
2023-06-04T12:44:52.397Z,32.26
2023-06-04T12:47:19.999Z,32.96
2023-06-04T12:49:47.707Z,33.20
2023-06-04T12:52:15.533Z,33.35
2023-06-04T12:54:44.078Z,33.26
2023-06-04T12:57:11.572Z,33.24
2023-06-04T12:59:39.242Z,32.73
2023-06-04T13:02:06.945Z,32.50
2023-06-04T13:04:34.561Z,32.18
2023-06-04T13:07:01.901Z,32.34
2023-06-04T13:09:29.930Z,32.43
2023-06-04T13:11:57.564Z,31.98
2023-06-04T13:14:25.158Z,33.19
2023-06-04T13:16:53.078Z,33.67
2023-06-04T13:19:21.980Z,32.77
2023-06-04T13:21:49.398Z,32.28
2023-06-04T13:24:17.065Z,32.71
2023-06-04T13:26:44.533Z,32.23
2023-06-04T13:29:12.215Z,32.83
2023-06-04T13:31:41.367Z,33.49
2023-06-04T13:34:25.723Z,33.31
2023-06-04T13:36:56.189Z,33.31
2023-06-04T13:39:23.952Z,33.59
2023-06-04T13:41:51.261Z,34.20
2023-06-04T13:44:18.885Z,34.02
2023-06-04T13:46:46.460Z,33.25
2023-06-04T13:49:14.060Z,33.81
2023-06-04T13:51:41.962Z,34.18
2023-06-04T13:54:11.825Z,34.19
2023-06-04T13:56:40.704Z,33.74
2023-06-04T13:59:08.324Z,34.45
2023-06-04T14:01:36.117Z,34.30
2023-06-04T14:04:07.528Z,33.35
2023-06-04T14:06:37.271Z,33.27
2023-06-04T14:09:08.208Z,33.40
2023-06-04T14:11:35.667Z,33.30
2023-06-04T14:14:03.329Z,33.12
2023-06-04T14:16:30.690Z,33.18
2023-06-04T14:18:58.529Z,33.27
2023-06-04T14:21:27.989Z,33.38
2023-06-04T14:23:55.866Z,32.79
2023-06-04T14:26:23.578Z,34.21
2023-06-04T14:28:51.470Z,34.55
2023-06-04T14:31:18.876Z,33.95
2023-06-04T14:33:46.519Z,34.29
2023-06-04T14:36:13.843Z,33.40
2023-06-04T14:38:41.762Z,34.70
2023-06-04T14:41:09.789Z,33.72
2023-06-04T14:43:37.980Z,34.14
2023-06-04T14:46:05.676Z,33.62
2023-06-04T14:48:33.552Z,35.44
2023-06-04T14:51:01.097Z,34.79
2023-06-04T14:53:28.822Z,33.61
2023-06-04T14:55:56.334Z,34.17
2023-06-04T14:58:24.009Z,34.66
2023-06-04T15:00:51.428Z,34.70
2023-06-04T15:03:19.156Z,34.75
2023-06-04T15:05:46.479Z,33.59
2023-06-04T15:08:14.200Z,33.64
2023-06-04T15:10:41.712Z,34.40
2023-06-04T15:13:09.294Z,31.15
2023-06-04T15:15:36.596Z,30.95
2023-06-04T15:18:04.481Z,31.37
2023-06-04T15:20:32.324Z,32.53
2023-06-04T15:22:59.962Z,32.46
2023-06-04T15:25:29.705Z,33.52
2023-06-04T15:28:00.149Z,33.40
2023-06-04T15:30:27.803Z,33.07
2023-06-04T15:32:55.982Z,33.45
2023-06-04T15:35:23.288Z,33.08
2023-06-04T15:37:50.820Z,32.43
2023-06-04T15:40:18.223Z,31.79
2023-06-04T15:42:45.795Z,34.76
2023-06-04T15:45:13.163Z,33.41
2023-06-04T15:47:40.962Z,33.71
2023-06-04T15:50:08.900Z,33.60
2023-06-04T15:52:36.516Z,34.10
2023-06-04T15:55:04.063Z,35.20
2023-06-04T15:57:31.796Z,35.82
2023-06-04T15:59:59.257Z,35.63
2023-06-04T16:02:27.605Z,34.93
2023-06-04T16:04:55.004Z,35.91
2023-06-04T16:07:22.940Z,36.13
2023-06-04T16:09:50.215Z,35.35
2023-06-04T16:12:17.832Z,35.67
2023-06-04T16:14:45.191Z,36.48
2023-06-04T16:17:12.801Z,36.91
2023-06-04T16:19:40.103Z,36.23
2023-06-04T16:22:07.775Z,36.72
2023-06-04T16:24:35.070Z,37.02
2023-06-04T16:27:02.765Z,38.12
2023-06-04T16:29:30.095Z,38.86
2023-06-04T16:31:57.704Z,39.77
2023-06-04T16:34:25.041Z,39.53
2023-06-04T16:36:52.722Z,40.83
2023-06-04T16:39:20.063Z,41.40
2023-06-04T16:41:48.146Z,41.92
2023-06-04T16:44:16.124Z,41.13
2023-06-04T16:46:43.767Z,42.32
2023-06-04T16:49:11.197Z,42.86
2023-06-04T16:51:38.856Z,43.26
2023-06-04T16:54:06.331Z,44.00
2023-06-04T16:56:34.588Z,44.12
2023-06-04T16:59:02.088Z,44.38
2023-06-04T17:01:29.813Z,45.04
2023-06-04T17:03:57.203Z,47.77
2023-06-04T17:06:26.389Z,47.70
2023-06-04T17:08:56.201Z,48.24
2023-06-04T17:11:23.852Z,48.98
2023-06-04T17:13:51.184Z,49.92
2023-06-04T17:16:18.926Z,50.15
2023-06-04T17:18:47.138Z,50.24
2023-06-04T17:21:18.187Z,49.82
2023-06-04T17:23:48.898Z,50.23
2023-06-04T17:26:17.176Z,49.60
2023-06-04T17:28:44.784Z,51.08
2023-06-04T17:31:18.217Z,51.40
2023-06-04T17:33:46.504Z,53.53
2023-06-04T17:36:14.550Z,52.74
2023-06-04T17:38:42.309Z,54.08
2023-06-04T17:41:11.134Z,54.73
2023-06-04T17:43:40.360Z,53.85
2023-06-04T17:46:08.239Z,55.09
2023-06-04T17:48:36.478Z,54.92
2023-06-04T17:51:07.446Z,55.02
2023-06-04T17:53:34.778Z,53.90
2023-06-04T17:56:02.666Z,50.90
2023-06-04T17:58:30.481Z,51.43
2023-06-04T18:00:58.515Z,49.79
2023-06-04T18:03:25.917Z,46.31
2023-06-04T18:05:53.588Z,46.73
2023-06-04T18:08:22.379Z,46.58
2023-06-04T18:10:50.108Z,45.40
2023-06-04T18:13:17.758Z,45.46
2023-06-04T18:15:45.713Z,45.29
2023-06-04T18:18:13.170Z,43.16
2023-06-04T18:20:42.078Z,41.69
2023-06-04T18:23:13.249Z,41.81
2023-06-04T18:25:41.065Z,41.15
2023-06-04T18:28:08.493Z,40.75
2023-06-04T18:30:36.486Z,40.32
2023-06-04T18:33:03.994Z,41.10
2023-06-04T18:35:33.415Z,40.84
2023-06-04T18:38:00.815Z,41.21
2023-06-04T18:40:28.404Z,40.63
2023-06-04T18:42:55.774Z,40.82
2023-06-04T18:45:23.375Z,40.39
2023-06-04T18:47:50.895Z,40.41
2023-06-04T18:50:18.720Z,40.47
2023-06-04T18:52:46.159Z,40.34
2023-06-04T18:55:13.795Z,41.02
2023-06-04T18:57:41.137Z,42.29
2023-06-04T19:00:09.834Z,43.57
2023-06-04T19:02:38.337Z,43.57
2023-06-04T19:05:09.864Z,44.42
2023-06-04T19:07:38.887Z,44.84
2023-06-04T19:10:07.028Z,45.16
2023-06-04T19:12:34.660Z,45.65
2023-06-04T19:15:02.469Z,46.04
2023-06-04T19:17:30.229Z,47.00
2023-06-04T19:19:58.006Z,47.61
2023-06-04T19:22:25.314Z,48.39
2023-06-04T19:24:52.906Z,49.23
2023-06-04T19:27:20.663Z,49.50
2023-06-04T19:29:48.310Z,50.26
2023-06-04T19:32:15.856Z,50.87
2023-06-04T19:34:43.566Z,51.22
2023-06-04T19:37:11.192Z,51.69
2023-06-04T19:39:38.796Z,51.95
2023-06-04T19:42:06.756Z,52.54
2023-06-04T19:44:34.437Z,52.94
2023-06-04T19:47:01.822Z,53.93
2023-06-04T19:49:29.587Z,55.11
2023-06-04T19:51:56.932Z,55.48
2023-06-04T19:54:24.873Z,56.19
2023-06-04T19:56:52.301Z,56.59
2023-06-04T19:59:20.482Z,57.48
2023-06-04T20:01:48.211Z,57.63
2023-06-04T20:04:16.084Z,57.75
2023-06-04T20:06:44.901Z,58.02
2023-06-04T20:09:15.113Z,58.84
2023-06-04T20:11:42.689Z,58.87
2023-06-04T20:14:11.216Z,59.95
2023-06-04T20:16:38.689Z,59.06
2023-06-04T20:19:06.439Z,59.81
2023-06-04T20:21:35.975Z,60.53
2023-06-04T20:24:04.923Z,60.02
2023-06-04T20:26:34.079Z,59.69
2023-06-04T20:29:01.978Z,60.92
2023-06-04T20:31:29.482Z,60.37
2023-06-04T20:33:57.617Z,61.02
2023-06-04T20:36:25.926Z,60.76
2023-06-04T20:38:53.732Z,61.07
2023-06-04T20:41:22.423Z,61.47
2023-06-04T20:43:55.106Z,61.71
2023-06-04T20:46:24.713Z,62.23
2023-06-04T20:48:52.488Z,62.68
2023-06-04T20:51:19.925Z,63.74
2023-06-04T20:53:48.422Z,63.71
2023-06-04T20:56:16.361Z,64.01
2023-06-04T20:58:44.098Z,64.40
2023-06-04T21:01:12.917Z,64.35
2023-06-04T21:03:41.360Z,66.00
2023-06-04T21:06:09.043Z,65.52
2023-06-04T21:08:36.903Z,66.63
2023-06-04T21:11:04.225Z,68.08
2023-06-04T21:13:32.271Z,68.39
2023-06-04T21:15:59.662Z,68.39
2023-06-04T21:18:28.962Z,68.00
2023-06-04T21:20:56.420Z,69.56
2023-06-04T21:23:24.145Z,69.36
2023-06-04T21:25:51.469Z,69.29
2023-06-04T21:28:19.110Z,69.95
2023-06-04T21:30:46.396Z,69.87
2023-06-04T21:33:14.145Z,70.25
2023-06-04T21:35:41.416Z,70.87
2023-06-04T21:38:08.971Z,70.93
2023-06-04T21:40:36.274Z,71.48
2023-06-04T21:43:03.879Z,71.80
2023-06-04T21:45:31.429Z,72.73
2023-06-04T21:48:00.408Z,73.04
2023-06-04T21:50:27.800Z,73.39
2023-06-04T21:52:55.711Z,74.39
2023-06-04T21:55:24.947Z,73.89
2023-06-04T21:57:52.705Z,74.63
2023-06-04T22:00:20.280Z,74.44
2023-06-04T22:02:47.998Z,74.15
2023-06-04T22:05:15.874Z,74.63
2023-06-04T22:07:43.523Z,75.76
2023-06-04T22:10:10.964Z,74.63
2023-06-04T22:12:38.594Z,74.50
2023-06-04T22:15:06.621Z,74.55
2023-06-04T22:17:34.264Z,74.60
2023-06-04T22:20:01.573Z,74.74
2023-06-04T22:22:29.318Z,75.62
2023-06-04T22:24:56.932Z,75.24
2023-06-04T22:27:24.504Z,75.36
2023-06-04T22:29:51.804Z,75.20
2023-06-04T22:32:19.412Z,75.04
2023-06-04T22:34:46.783Z,75.22
2023-06-04T22:37:14.407Z,76.01
2023-06-04T22:39:42.315Z,73.26
2023-06-04T22:42:10.258Z,73.93
2023-06-04T22:44:37.564Z,74.94
2023-06-04T22:47:05.853Z,73.97
2023-06-04T22:49:33.213Z,74.62
2023-06-04T22:52:01.031Z,75.02
2023-06-04T22:54:28.338Z,75.35
2023-06-04T22:56:56.048Z,75.21
2023-06-04T22:59:23.335Z,75.00
2023-06-04T23:01:50.919Z,75.29
2023-06-04T23:04:18.356Z,75.23
2023-06-04T23:06:46.301Z,75.15
2023-06-04T23:09:15.065Z,74.30
2023-06-04T23:11:44.017Z,73.39
2023-06-04T23:14:12.064Z,73.57
2023-06-04T23:16:39.772Z,74.20
2023-06-04T23:19:07.150Z,74.98
2023-06-04T23:21:34.696Z,75.37
2023-06-04T23:24:01.999Z,74.74
2023-06-04T23:26:29.595Z,76.70
2023-06-04T23:28:56.910Z,76.14
2023-06-04T23:31:24.530Z,76.78
2023-06-04T23:33:51.836Z,76.72
2023-06-04T23:36:19.535Z,76.56
2023-06-04T23:38:48.120Z,76.29
2023-06-04T23:41:16.644Z,76.77
2023-06-04T23:43:43.959Z,75.17
2023-06-04T23:46:11.625Z,73.88
2023-06-04T23:48:39.218Z,75.25
2023-06-04T23:51:07.477Z,75.71
2023-06-04T23:53:35.211Z,76.24
2023-06-04T23:56:02.866Z,76.43
2023-06-04T23:58:30.174Z,76.85
